< < Back
Terminal Aerodrome Forecast


Current Version              Previous Versions:   1  2  3  4  5  6  7  8  9  

Terminal Aerodrome Forecast

948
FTUS42 KFFC 220500
TAFCSG
TAF
KCSG 220523Z 2206/2306 00000KT P6SM FEW040
     FM221400 36006KT P6SM SCT040
     FM222200 36007KT P6SM SCT250
     FM230000 03005KT P6SM SCT250=



Latest METAR

858
SAUS70 KWBC 220600 RRA
MTRCSG
METAR KCSG 220551Z AUTO 00000KT 10SM CLR 21/18 A2999 RMK AO2 SLP149
T02060178 10283 20206 57003 $


USA.gov is the U.S. government's official web portal to all federal, state and local government web resources and services.